createdAt,value
2022-10-03T00:00:13.493Z,21.86
2022-10-03T00:02:50.881Z,21.87
2022-10-03T00:05:33.191Z,21.88
2022-10-03T00:08:22.891Z,21.91
2022-10-03T00:11:17.601Z,21.88
2022-10-03T00:14:18.540Z,21.85
2022-10-03T00:17:10.918Z,21.82
2022-10-03T00:19:44.936Z,21.79
2022-10-03T00:23:08.181Z,21.76
2022-10-03T00:25:55.080Z,21.76
2022-10-03T00:28:50.698Z,21.77
2022-10-03T00:31:25.685Z,21.76
2022-10-03T00:34:22.335Z,21.76
2022-10-03T00:37:17.209Z,21.71
2022-10-03T00:40:02.554Z,21.69
2022-10-03T00:42:55.353Z,21.67
2022-10-03T00:46:01.845Z,21.65
2022-10-03T00:48:59.986Z,21.55
2022-10-03T00:52:13.026Z,21.48
2022-10-03T00:55:17.796Z,21.41
2022-10-03T00:57:51.528Z,21.36
2022-10-03T01:00:25.461Z,21.35
2022-10-03T01:02:53.087Z,21.41
2022-10-03T01:05:38.602Z,21.34
2022-10-03T01:08:43.948Z,21.18
2022-10-03T01:11:39.939Z,21.26
2022-10-03T01:14:39.144Z,21.29
2022-10-03T01:17:13.963Z,21.17
2022-10-03T01:20:20.537Z,21.22
2022-10-03T01:23:00.586Z,21.20
2022-10-03T01:25:38.756Z,21.20
2022-10-03T01:29:00.372Z,21.17
2022-10-03T01:31:49.352Z,21.16
2022-10-03T01:34:30.462Z,21.04
2022-10-03T01:37:16.004Z,21.08
2022-10-03T01:40:12.995Z,21.00
2022-10-03T01:43:04.619Z,20.90
2022-10-03T01:45:56.456Z,20.78
2022-10-03T01:48:45.972Z,20.66
2022-10-03T01:52:01.440Z,20.63
2022-10-03T01:55:01.695Z,20.62
2022-10-03T01:57:35.950Z,20.59
2022-10-03T02:00:08.642Z,20.61
2022-10-03T02:03:12.496Z,20.58
2022-10-03T02:06:07.131Z,20.61
2022-10-03T02:08:49.130Z,20.63
2022-10-03T02:11:34.343Z,20.64
2022-10-03T02:14:15.151Z,20.55
2022-10-03T02:17:02.255Z,20.35
2022-10-03T02:20:12.203Z,20.39
2022-10-03T02:22:52.116Z,20.49
2022-10-03T02:25:24.416Z,20.50
2022-10-03T02:28:11.052Z,20.53
2022-10-03T02:31:12.931Z,20.45
2022-10-03T02:34:17.954Z,20.40
2022-10-03T02:37:19.890Z,20.46
2022-10-03T02:40:22.206Z,20.41
2022-10-03T02:43:24.568Z,20.45
2022-10-03T02:46:31.488Z,20.32
2022-10-03T02:49:24.238Z,20.20
2022-10-03T02:52:15.409Z,20.12
2022-10-03T02:55:14.396Z,20.11
2022-10-03T02:58:12.858Z,20.07
2022-10-03T03:01:14.614Z,20.02
2022-10-03T03:04:15.539Z,19.97
2022-10-03T03:07:02.348Z,20.00
2022-10-03T03:09:48.671Z,20.06
2022-10-03T03:12:41.219Z,20.12
2022-10-03T03:15:28.519Z,20.23
2022-10-03T03:18:23.157Z,20.19
2022-10-03T03:21:04.582Z,20.22
2022-10-03T03:23:46.151Z,20.14
2022-10-03T03:26:42.792Z,20.15
2022-10-03T03:29:41.847Z,20.11
2022-10-03T03:32:45.664Z,20.15
2022-10-03T03:35:35.058Z,19.98
2022-10-03T03:38:31.983Z,19.90
2022-10-03T03:41:14.867Z,19.84
2022-10-03T03:44:07.652Z,19.80
2022-10-03T03:47:00.266Z,19.84
2022-10-03T03:49:29.981Z,19.82
2022-10-03T03:52:29.175Z,19.89
2022-10-03T03:55:26.869Z,19.96
2022-10-03T03:58:19.620Z,20.01
2022-10-03T04:01:26.822Z,20.05
2022-10-03T04:04:22.734Z,20.00
2022-10-03T04:07:21.820Z,20.03
2022-10-03T04:10:06.287Z,20.02
2022-10-03T04:12:59.013Z,19.82
2022-10-03T04:15:36.610Z,19.69
2022-10-03T04:18:46.369Z,19.58
2022-10-03T04:22:16.149Z,19.55
2022-10-03T04:24:59.012Z,19.40
2022-10-03T04:27:53.248Z,19.42
2022-10-03T04:30:38.886Z,19.48
2022-10-03T04:33:25.828Z,19.48
2022-10-03T04:36:12.254Z,19.47
2022-10-03T04:39:02.477Z,19.56
2022-10-03T04:42:00.468Z,19.53
2022-10-03T04:44:58.927Z,19.52
2022-10-03T04:47:45.667Z,19.55
2022-10-03T04:50:20.945Z,19.44
2022-10-03T04:52:57.793Z,19.27
2022-10-03T04:55:55.199Z,19.11
2022-10-03T04:58:40.475Z,19.08
2022-10-03T05:01:19.662Z,19.05
2022-10-03T05:03:59.416Z,18.97
2022-10-03T05:07:04.415Z,19.08
2022-10-03T05:09:44.152Z,18.96
2022-10-03T05:12:30.593Z,18.86
2022-10-03T05:15:07.936Z,18.80
2022-10-03T05:18:00.717Z,18.87
2022-10-03T05:20:39.019Z,18.79
2022-10-03T05:23:31.660Z,18.90
2022-10-03T05:26:16.393Z,18.90
2022-10-03T05:28:55.268Z,18.85
2022-10-03T05:31:50.678Z,18.86
2022-10-03T05:34:59.491Z,18.86
2022-10-03T05:37:56.641Z,18.88
2022-10-03T05:40:30.876Z,18.87
2022-10-03T05:43:24.155Z,18.88
2022-10-03T05:46:23.349Z,18.92
2022-10-03T05:49:25.494Z,18.89
2022-10-03T05:52:39.317Z,18.84
2022-10-03T05:55:19.442Z,18.93
2022-10-03T05:58:06.395Z,18.98
2022-10-03T06:00:50.539Z,18.99
2022-10-03T06:04:02.651Z,19.06
2022-10-03T06:06:57.759Z,19.12
2022-10-03T06:09:28.602Z,19.09
2022-10-03T06:12:15.899Z,19.13
2022-10-03T06:15:08.328Z,19.19
2022-10-03T06:18:27.165Z,19.37
2022-10-03T06:21:19.448Z,19.40
2022-10-03T06:24:17.878Z,19.54
2022-10-03T06:27:24.203Z,19.47
2022-10-03T06:30:13.598Z,19.46
2022-10-03T06:33:10.257Z,19.57
2022-10-03T06:36:08.547Z,19.74
2022-10-03T06:39:20.409Z,19.80
2022-10-03T06:42:09.608Z,19.87
2022-10-03T06:45:32.391Z,20.05
2022-10-03T06:48:22.737Z,20.13
2022-10-03T06:51:30.667Z,20.33
2022-10-03T06:54:43.987Z,20.40
2022-10-03T06:57:33.700Z,20.52
2022-10-03T07:00:11.492Z,20.56
2022-10-03T07:03:19.662Z,20.56
2022-10-03T07:06:18.451Z,20.60
2022-10-03T07:08:52.372Z,20.64
2022-10-03T07:11:40.811Z,20.66
2022-10-03T07:14:26.001Z,20.67
2022-10-03T07:17:15.727Z,20.81
2022-10-03T07:20:08.873Z,20.98
2022-10-03T07:23:02.289Z,21.18
2022-10-03T07:25:36.430Z,21.32
2022-10-03T07:28:10.583Z,21.43
2022-10-03T07:31:03.383Z,21.43
2022-10-03T07:33:58.995Z,21.53
2022-10-03T07:37:23.367Z,21.56
2022-10-03T07:40:10.803Z,21.58
2022-10-03T07:42:53.632Z,21.71
2022-10-03T07:45:42.631Z,21.62
2022-10-03T07:48:25.832Z,21.70
2022-10-03T07:51:17.969Z,21.66
2022-10-03T07:54:17.838Z,21.60
2022-10-03T07:56:51.182Z,21.59
2022-10-03T07:59:53.151Z,21.69
2022-10-03T08:02:51.309Z,21.67
2022-10-03T08:05:44.455Z,21.80
2022-10-03T08:08:50.953Z,21.96
2022-10-03T08:11:25.624Z,21.99
2022-10-03T08:14:24.794Z,22.16
2022-10-03T08:17:27.768Z,22.21
2022-10-03T08:20:20.267Z,22.39
2022-10-03T08:23:24.712Z,22.56
2022-10-03T08:26:14.765Z,22.64
2022-10-03T08:29:01.411Z,22.75
2022-10-03T08:31:43.581Z,22.77
2022-10-03T08:34:30.415Z,22.88
2022-10-03T08:38:02.264Z,22.93
2022-10-03T08:40:57.221Z,23.01
2022-10-03T08:43:33.626Z,23.14
2022-10-03T08:46:28.786Z,23.29
2022-10-03T08:49:23.786Z,23.39
2022-10-03T08:52:18.598Z,23.54
2022-10-03T08:55:04.239Z,23.60
2022-10-03T08:58:07.407Z,23.74
2022-10-03T09:01:06.002Z,23.76
2022-10-03T09:03:58.514Z,23.84
2022-10-03T09:06:35.422Z,23.89
2022-10-03T09:09:40.807Z,23.93
2022-10-03T09:12:29.585Z,24.00
2022-10-03T09:15:38.317Z,23.97
2022-10-03T09:18:33.413Z,24.03
2022-10-03T09:21:18.661Z,24.20
2022-10-03T09:24:10.675Z,24.26
2022-10-03T09:27:10.700Z,24.18
2022-10-03T09:29:48.826Z,24.23
2022-10-03T09:32:31.898Z,24.29
2022-10-03T09:35:30.894Z,24.41
2022-10-03T09:38:31.639Z,24.53
2022-10-03T09:41:44.414Z,24.72
2022-10-03T09:44:31.078Z,24.72
2022-10-03T09:47:36.076Z,24.81
2022-10-03T09:50:41.094Z,24.81
2022-10-03T09:53:44.758Z,24.90
2022-10-03T09:56:34.327Z,25.00
2022-10-03T09:59:23.858Z,25.01
2022-10-03T10:02:36.531Z,25.13
2022-10-03T10:05:17.179Z,25.14
2022-10-03T10:08:20.706Z,25.15
2022-10-03T10:10:48.293Z,25.06
2022-10-03T10:14:07.364Z,25.05
2022-10-03T10:16:50.861Z,25.04
2022-10-03T10:19:45.742Z,25.03
2022-10-03T10:22:29.969Z,24.92
2022-10-03T10:25:26.423Z,25.05
2022-10-03T10:28:11.926Z,24.98
2022-10-03T10:31:04.120Z,25.01
2022-10-03T10:33:49.837Z,25.03
2022-10-03T10:36:39.291Z,25.11
2022-10-03T10:39:22.771Z,25.14
2022-10-03T10:42:11.771Z,25.26
2022-10-03T10:45:08.291Z,25.37
2022-10-03T10:48:01.932Z,25.42
2022-10-03T10:51:07.435Z,25.36
2022-10-03T10:54:18.386Z,25.44
2022-10-03T10:57:23.309Z,25.28
2022-10-03T11:00:29.537Z,25.20
2022-10-03T11:03:15.501Z,25.28
2022-10-03T11:06:22.688Z,25.18
2022-10-03T11:09:17.765Z,25.29
2022-10-03T11:12:07.307Z,25.24
2022-10-03T11:15:02.096Z,25.11
2022-10-03T11:17:40.837Z,25.12
2022-10-03T11:20:46.028Z,24.98
2022-10-03T11:23:59.200Z,24.92
2022-10-03T11:27:18.271Z,25.07
2022-10-03T11:30:12.881Z,25.14
2022-10-03T11:32:58.134Z,25.06
2022-10-03T11:35:36.731Z,25.10
2022-10-03T11:38:17.321Z,25.04
2022-10-03T11:41:17.037Z,25.09
2022-10-03T11:44:04.765Z,25.05
2022-10-03T11:46:53.329Z,25.14
2022-10-03T11:49:47.815Z,24.97
2022-10-03T11:52:31.005Z,25.01
2022-10-03T11:55:21.047Z,25.06
2022-10-03T11:58:06.292Z,25.10
2022-10-03T12:00:37.886Z,25.27
2022-10-03T12:03:31.381Z,25.35
2022-10-03T12:06:20.434Z,25.38
2022-10-03T12:09:17.870Z,25.49
2022-10-03T12:11:58.758Z,25.59
2022-10-03T12:14:32.742Z,25.63
2022-10-03T12:17:16.264Z,25.69
2022-10-03T12:19:57.864Z,25.79
2022-10-03T12:22:44.075Z,25.86
2022-10-03T12:25:25.862Z,25.86
2022-10-03T12:28:22.661Z,25.96
2022-10-03T12:31:01.098Z,25.94
2022-10-03T12:33:38.928Z,25.96
2022-10-03T12:36:53.791Z,26.03
2022-10-03T12:39:36.434Z,25.98
2022-10-03T12:42:27.132Z,25.84
2022-10-03T12:45:03.340Z,25.66
2022-10-03T12:48:07.893Z,25.77
2022-10-03T12:50:47.823Z,25.79
2022-10-03T12:53:18.518Z,25.96
2022-10-03T12:56:02.411Z,25.97
2022-10-03T12:58:36.732Z,26.00
2022-10-03T13:01:06.979Z,26.03
2022-10-03T13:04:12.434Z,26.06
2022-10-03T13:07:04.316Z,25.93
2022-10-03T13:09:43.443Z,25.83
2022-10-03T13:12:37.204Z,25.89
2022-10-03T13:15:27.140Z,25.87
2022-10-03T13:18:27.983Z,25.86
2022-10-03T13:21:40.612Z,25.86
2022-10-03T13:24:14.603Z,25.85
2022-10-03T13:27:03.134Z,25.81
2022-10-03T13:29:50.588Z,25.71
2022-10-03T13:32:33.894Z,25.75
2022-10-03T13:35:36.257Z,25.80
2022-10-03T13:38:13.395Z,25.76
2022-10-03T13:40:49.547Z,25.71
2022-10-03T13:43:25.633Z,25.72
2022-10-03T13:45:57.488Z,25.75
2022-10-03T13:48:30.815Z,25.66
2022-10-03T13:51:09.761Z,25.65
2022-10-03T13:54:16.439Z,25.58
2022-10-03T13:57:24.994Z,25.60
2022-10-03T14:00:25.685Z,25.63
2022-10-03T14:03:22.168Z,25.63
2022-10-03T14:06:20.792Z,25.58
2022-10-03T14:09:36.217Z,25.38
2022-10-03T14:12:44.109Z,25.25
2022-10-03T14:15:33.309Z,25.16
2022-10-03T14:18:15.746Z,25.15
2022-10-03T14:21:24.796Z,25.18
2022-10-03T14:24:05.819Z,25.15
2022-10-03T14:27:02.773Z,25.08
2022-10-03T14:30:10.662Z,25.14
2022-10-03T14:33:18.399Z,25.13
2022-10-03T14:36:07.755Z,25.15
2022-10-03T14:39:14.821Z,25.18
2022-10-03T14:42:06.828Z,25.11
2022-10-03T14:44:44.310Z,25.16
2022-10-03T14:47:16.027Z,25.09
2022-10-03T14:50:07.065Z,25.15
2022-10-03T14:53:04.236Z,25.15
2022-10-03T14:56:01.277Z,25.18
2022-10-03T14:59:04.530Z,25.10
2022-10-03T15:01:36.445Z,25.14
2022-10-03T15:04:26.959Z,25.20
2022-10-03T15:06:58.495Z,25.11
2022-10-03T15:09:55.598Z,25.27
2022-10-03T15:12:34.198Z,25.34
2022-10-03T15:15:19.723Z,25.39
2022-10-03T15:17:53.187Z,25.42
2022-10-03T15:20:32.984Z,25.43
2022-10-03T15:23:12.041Z,25.44
2022-10-03T15:25:42.446Z,25.46
2022-10-03T15:28:24.410Z,25.50
2022-10-03T15:30:56.816Z,25.60
2022-10-03T15:33:57.135Z,25.63
2022-10-03T15:36:33.653Z,25.52
2022-10-03T15:39:08.674Z,25.56
2022-10-03T15:41:55.551Z,25.52
2022-10-03T15:44:39.663Z,25.55
2022-10-03T15:47:18.660Z,25.57
2022-10-03T15:49:50.917Z,25.58
2022-10-03T15:52:31.931Z,25.60
2022-10-03T15:55:11.903Z,25.58
2022-10-03T15:57:48.104Z,25.58
2022-10-03T16:00:27.432Z,25.56
2022-10-03T16:03:21.265Z,25.54
2022-10-03T16:05:57.358Z,25.60
2022-10-03T16:08:31.272Z,25.60
2022-10-03T16:11:54.033Z,25.64
2022-10-03T16:14:34.993Z,25.56
2022-10-03T16:17:38.873Z,25.62
2022-10-03T16:20:34.145Z,25.71
2022-10-03T16:23:23.555Z,25.71
2022-10-03T16:26:05.652Z,25.62
2022-10-03T16:28:45.660Z,25.64
2022-10-03T16:31:49.857Z,25.63
2022-10-03T16:34:22.961Z,25.59
2022-10-03T16:36:51.738Z,25.49
2022-10-03T16:39:44.878Z,25.45
2022-10-03T16:42:26.750Z,25.45
2022-10-03T16:45:10.064Z,25.38
2022-10-03T16:47:40.712Z,25.30
2022-10-03T16:50:30.059Z,25.30
2022-10-03T16:53:03.772Z,25.16
2022-10-03T16:56:00.183Z,25.15
2022-10-03T16:58:39.752Z,25.08
2022-10-03T17:01:27.265Z,25.06
2022-10-03T17:04:20.528Z,25.02
2022-10-03T17:06:49.350Z,24.94
2022-10-03T17:09:40.055Z,24.84
2022-10-03T17:12:28.907Z,24.77
2022-10-03T17:15:02.071Z,24.69
2022-10-03T17:17:32.089Z,24.66
2022-10-03T17:20:15.088Z,24.59
2022-10-03T17:23:04.579Z,24.55
2022-10-03T17:25:32.633Z,24.46
2022-10-03T17:28:05.485Z,24.42
2022-10-03T17:30:53.235Z,24.40
2022-10-03T17:33:52.732Z,24.34
2022-10-03T17:37:01.762Z,24.36
2022-10-03T17:39:47.364Z,24.35
2022-10-03T17:42:29.783Z,24.33
2022-10-03T17:45:18.541Z,24.28
2022-10-03T17:48:34.169Z,24.28
2022-10-03T17:51:23.954Z,24.27
2022-10-03T17:53:57.784Z,24.25
2022-10-03T17:56:27.842Z,24.24
2022-10-03T17:59:14.140Z,24.21
2022-10-03T18:01:50.265Z,24.17
2022-10-03T18:04:38.124Z,24.11
2022-10-03T18:07:29.073Z,24.14
2022-10-03T18:09:57.103Z,24.06
2022-10-03T18:12:54.583Z,24.09
2022-10-03T18:15:47.506Z,24.08
2022-10-03T18:18:55.866Z,23.97
2022-10-03T18:21:50.491Z,24.00
2022-10-03T18:24:41.384Z,23.99
2022-10-03T18:27:30.704Z,23.95
2022-10-03T18:30:14.547Z,23.93
2022-10-03T18:32:49.249Z,23.96
2022-10-03T18:35:30.054Z,23.93
2022-10-03T18:38:18.834Z,23.93
2022-10-03T18:40:50.980Z,23.91
2022-10-03T18:43:47.192Z,23.87
2022-10-03T18:46:15.976Z,23.80
2022-10-03T18:49:28.157Z,23.82
2022-10-03T18:51:55.248Z,23.78
2022-10-03T18:54:49.932Z,23.77
2022-10-03T18:57:32.163Z,23.75
2022-10-03T19:00:19.046Z,23.75
2022-10-03T19:02:55.547Z,23.70
2022-10-03T19:05:54.851Z,23.65
2022-10-03T19:08:41.270Z,23.65
2022-10-03T19:11:24.631Z,23.68
2022-10-03T19:14:16.873Z,23.64
2022-10-03T19:16:59.810Z,23.64
2022-10-03T19:19:59.532Z,23.55
2022-10-03T19:22:44.406Z,23.51
2022-10-03T19:25:41.547Z,23.50
2022-10-03T19:28:44.593Z,23.41
2022-10-03T19:31:29.185Z,23.40
2022-10-03T19:34:31.796Z,23.41
2022-10-03T19:37:01.937Z,23.36
2022-10-03T19:39:50.476Z,23.34
2022-10-03T19:42:33.547Z,23.29
2022-10-03T19:45:01.930Z,23.25
2022-10-03T19:47:33.875Z,23.21
2022-10-03T19:50:19.069Z,23.19
2022-10-03T19:52:48.461Z,23.22
2022-10-03T19:55:25.774Z,23.25
2022-10-03T19:58:05.135Z,23.26
2022-10-03T20:00:41.695Z,23.19
2022-10-03T20:03:31.450Z,23.21
2022-10-03T20:06:03.165Z,23.22
2022-10-03T20:08:42.558Z,23.23
2022-10-03T20:11:14.900Z,23.18
2022-10-03T20:13:52.675Z,23.18
2022-10-03T20:16:25.433Z,23.17
2022-10-03T20:18:57.330Z,23.16
2022-10-03T20:21:29.099Z,23.09
2022-10-03T20:24:00.056Z,23.06
2022-10-03T20:26:43.554Z,23.06
2022-10-03T20:29:31.934Z,23.00
2022-10-03T20:32:01.934Z,22.99
2022-10-03T20:34:31.986Z,22.99
2022-10-03T20:37:27.890Z,23.00
2022-10-03T20:40:04.317Z,23.00
2022-10-03T20:42:32.617Z,22.98
2022-10-03T20:45:15.332Z,22.97
2022-10-03T20:48:01.731Z,22.96
2022-10-03T20:50:35.993Z,22.95
2022-10-03T20:53:19.553Z,22.94
2022-10-03T20:56:17.979Z,22.92
2022-10-03T20:58:54.318Z,22.88
2022-10-03T21:01:24.945Z,22.86
2022-10-03T21:04:15.538Z,22.82
2022-10-03T21:07:21.240Z,22.82
2022-10-03T21:09:58.885Z,22.76
2022-10-03T21:12:35.918Z,22.76
2022-10-03T21:15:15.928Z,22.74
2022-10-03T21:17:46.266Z,22.75
2022-10-03T21:20:29.683Z,22.73
2022-10-03T21:23:03.299Z,22.73
2022-10-03T21:25:38.649Z,22.72
2022-10-03T21:28:30.988Z,22.72
2022-10-03T21:31:17.736Z,22.67
2022-10-03T21:34:21.718Z,22.64
2022-10-03T21:37:18.084Z,22.60
2022-10-03T21:39:55.747Z,22.55
2022-10-03T21:42:33.331Z,22.46
2022-10-03T21:45:47.983Z,22.48
2022-10-03T21:48:35.998Z,22.45
2022-10-03T21:51:32.840Z,22.41
2022-10-03T21:54:33.906Z,22.41
2022-10-03T21:57:01.826Z,22.38
2022-10-03T21:59:32.065Z,22.37
2022-10-03T22:02:54.441Z,22.36
2022-10-03T22:05:28.094Z,22.27
2022-10-03T22:07:56.898Z,22.27
2022-10-03T22:10:31.244Z,22.23
2022-10-03T22:13:08.612Z,22.21
2022-10-03T22:15:37.011Z,22.16
2022-10-03T22:18:12.149Z,22.15
2022-10-03T22:21:05.507Z,22.16
2022-10-03T22:23:42.097Z,22.16
2022-10-03T22:26:32.410Z,22.16
2022-10-03T22:29:00.282Z,22.14
2022-10-03T22:31:38.431Z,22.08
2022-10-03T22:34:21.728Z,22.04
2022-10-03T22:36:52.919Z,22.03
2022-10-03T22:39:24.626Z,22.02
2022-10-03T22:41:57.535Z,22.00
2022-10-03T22:44:29.917Z,22.00
2022-10-03T22:47:06.797Z,21.97
2022-10-03T22:49:48.194Z,21.96
2022-10-03T22:52:29.101Z,21.97
2022-10-03T22:54:59.238Z,21.93
2022-10-03T22:57:31.751Z,21.86
2022-10-03T23:00:16.598Z,21.89
2022-10-03T23:02:59.474Z,21.87
2022-10-03T23:05:43.269Z,21.85
2022-10-03T23:08:29.057Z,21.80
2022-10-03T23:11:04.713Z,21.80
2022-10-03T23:13:44.343Z,21.76
2022-10-03T23:16:31.077Z,21.76
2022-10-03T23:19:13.666Z,21.73
2022-10-03T23:21:47.373Z,21.64
2022-10-03T23:24:28.737Z,21.61
2022-10-03T23:27:30.130Z,21.59
2022-10-03T23:30:18.588Z,21.63
2022-10-03T23:32:49.297Z,21.60
2022-10-03T23:35:32.433Z,21.50
2022-10-03T23:38:02.319Z,21.47
2022-10-03T23:40:41.262Z,21.50
2022-10-03T23:43:40.823Z,21.44
2022-10-03T23:46:16.290Z,21.41
2022-10-03T23:49:06.261Z,21.42
2022-10-03T23:51:36.865Z,21.30
2022-10-03T23:54:08.742Z,21.37
2022-10-03T23:56:36.275Z,21.38
2022-10-03T23:59:04.209Z,21.26
